createdAt,value
2023-05-25T00:00:16.814Z,41.78
2023-05-25T00:03:04.098Z,41.88
2023-05-25T00:05:31.214Z,42.14
2023-05-25T00:07:58.327Z,41.86
2023-05-25T00:10:25.063Z,42.02
2023-05-25T00:12:52.117Z,41.86
2023-05-25T00:15:19.082Z,42.14
2023-05-25T00:17:49.073Z,42.32
2023-05-25T00:20:16.266Z,41.94
2023-05-25T00:22:44.984Z,41.91
2023-05-25T00:25:12.095Z,41.93
2023-05-25T00:27:39.149Z,42.26
2023-05-25T00:30:06.856Z,42.19
2023-05-25T00:32:34.167Z,42.18
2023-05-25T00:35:01.253Z,42.23
2023-05-25T00:37:28.286Z,42.50
2023-05-25T00:39:55.074Z,42.13
2023-05-25T00:42:22.171Z,42.44
2023-05-25T00:44:49.067Z,42.39
2023-05-25T00:47:16.939Z,41.90
2023-05-25T00:49:43.697Z,42.27
2023-05-25T00:52:11.960Z,42.31
2023-05-25T00:54:39.220Z,42.06
2023-05-25T00:57:07.350Z,42.28
2023-05-25T00:59:46.716Z,42.34
2023-05-25T01:02:17.064Z,42.35
2023-05-25T01:04:45.613Z,42.28
2023-05-25T01:07:17.739Z,42.22
2023-05-25T01:09:44.966Z,42.22
2023-05-25T01:12:12.123Z,42.46
2023-05-25T01:14:40.575Z,42.24
2023-05-25T01:17:08.499Z,42.58
2023-05-25T01:19:36.335Z,42.13
2023-05-25T01:22:05.430Z,42.19
2023-05-25T01:24:33.976Z,42.22
2023-05-25T01:27:01.737Z,42.34
2023-05-25T01:29:28.595Z,42.32
2023-05-25T01:31:55.688Z,42.13
2023-05-25T01:34:22.539Z,42.25
2023-05-25T01:36:49.783Z,42.23
2023-05-25T01:39:16.540Z,42.07
2023-05-25T01:41:43.621Z,42.13
2023-05-25T01:44:10.477Z,42.17
2023-05-25T01:46:38.802Z,42.19
2023-05-25T01:49:24.560Z,42.45
2023-05-25T01:52:18.608Z,42.35
2023-05-25T01:54:48.232Z,42.37
2023-05-25T01:57:16.067Z,42.57
2023-05-25T01:59:43.466Z,42.33
2023-05-25T02:02:10.687Z,42.53
2023-05-25T02:04:37.417Z,42.16
2023-05-25T02:07:05.115Z,42.36
2023-05-25T02:09:31.944Z,42.45
2023-05-25T02:11:59.056Z,42.28
2023-05-25T02:14:25.928Z,42.35
2023-05-25T02:16:53.308Z,42.36
2023-05-25T02:19:20.169Z,42.58
2023-05-25T02:21:47.309Z,42.43
2023-05-25T02:24:14.252Z,42.36
2023-05-25T02:26:41.464Z,42.64
2023-05-25T02:29:08.288Z,42.46
2023-05-25T02:31:35.615Z,42.56
2023-05-25T02:34:03.167Z,42.30
2023-05-25T02:36:30.318Z,42.23
2023-05-25T02:38:57.108Z,42.40
2023-05-25T02:41:26.294Z,42.85
2023-05-25T02:43:53.764Z,42.65
2023-05-25T02:46:20.964Z,42.37
2023-05-25T02:48:47.753Z,42.67
2023-05-25T02:51:14.822Z,42.68
2023-05-25T02:53:41.874Z,42.62
2023-05-25T02:56:10.435Z,42.85
2023-05-25T02:58:38.549Z,42.58
2023-05-25T03:01:06.201Z,42.69
2023-05-25T03:03:33.094Z,42.62
2023-05-25T03:06:00.160Z,42.98
2023-05-25T03:08:26.902Z,42.66
2023-05-25T03:10:53.972Z,42.57
2023-05-25T03:13:20.914Z,42.70
2023-05-25T03:15:47.976Z,42.44
2023-05-25T03:18:14.748Z,42.71
2023-05-25T03:20:41.891Z,42.72
2023-05-25T03:23:08.698Z,42.52
2023-05-25T03:25:35.773Z,42.58
2023-05-25T03:28:02.538Z,42.81
2023-05-25T03:30:30.568Z,42.54
2023-05-25T03:32:57.380Z,42.77
2023-05-25T03:35:24.672Z,42.98
2023-05-25T03:37:51.386Z,42.82
2023-05-25T03:40:18.525Z,42.64
2023-05-25T03:42:45.264Z,43.01
2023-05-25T03:45:12.301Z,42.72
2023-05-25T03:47:39.086Z,42.55
2023-05-25T03:50:09.572Z,42.75
2023-05-25T03:52:36.359Z,42.77
2023-05-25T03:55:05.213Z,42.93
2023-05-25T03:57:32.003Z,42.75
2023-05-25T03:59:59.127Z,42.67
2023-05-25T04:02:26.073Z,43.03
2023-05-25T04:04:53.581Z,42.78
2023-05-25T04:07:20.660Z,42.71
2023-05-25T04:09:47.795Z,43.13
2023-05-25T04:12:14.526Z,42.93
2023-05-25T04:14:42.720Z,42.94
2023-05-25T04:17:09.695Z,42.93
2023-05-25T04:19:36.807Z,42.70
2023-05-25T04:22:04.418Z,42.87
2023-05-25T04:24:32.646Z,43.16
2023-05-25T04:26:59.707Z,43.20
2023-05-25T04:29:27.081Z,43.01
2023-05-25T04:31:54.768Z,42.85
2023-05-25T04:34:21.825Z,42.95
2023-05-25T04:36:49.492Z,43.11
2023-05-25T04:39:16.628Z,43.05
2023-05-25T04:41:43.749Z,43.02
2023-05-25T04:44:10.878Z,42.90
2023-05-25T04:46:39.093Z,43.29
2023-05-25T04:49:08.415Z,43.14
2023-05-25T04:51:36.071Z,43.63
2023-05-25T04:54:03.303Z,43.86
2023-05-25T04:56:30.043Z,43.44
2023-05-25T04:58:57.133Z,43.12
2023-05-25T05:01:24.101Z,43.33
2023-05-25T05:03:51.472Z,43.44
2023-05-25T05:06:18.398Z,43.33
2023-05-25T05:08:45.469Z,43.07
2023-05-25T05:11:12.216Z,43.30
2023-05-25T05:13:39.295Z,43.55
2023-05-25T05:16:06.632Z,43.44
2023-05-25T05:18:33.693Z,43.33
2023-05-25T05:21:00.537Z,43.12
2023-05-25T05:23:27.683Z,43.18
2023-05-25T05:25:54.419Z,43.26
2023-05-25T05:28:21.605Z,43.43
2023-05-25T05:30:48.437Z,43.68
2023-05-25T05:33:15.863Z,43.28
2023-05-25T05:35:43.020Z,43.41
2023-05-25T05:38:10.222Z,43.09
2023-05-25T05:40:37.007Z,43.44
2023-05-25T05:43:04.096Z,43.62
2023-05-25T05:45:30.874Z,43.31
2023-05-25T05:47:57.963Z,43.36
2023-05-25T05:50:24.760Z,43.41
2023-05-25T05:52:53.658Z,43.26
2023-05-25T05:55:21.099Z,43.41
2023-05-25T05:57:48.296Z,43.44
2023-05-25T06:00:16.271Z,43.57
2023-05-25T06:02:43.524Z,43.41
2023-05-25T06:05:10.634Z,43.65
2023-05-25T06:07:38.488Z,43.61
2023-05-25T06:10:05.993Z,43.96
2023-05-25T06:12:33.026Z,43.71
2023-05-25T06:14:59.801Z,43.93
2023-05-25T06:17:28.163Z,43.75
2023-05-25T06:19:55.392Z,43.95
2023-05-25T06:22:24.023Z,43.91
2023-05-25T06:24:50.788Z,43.51
2023-05-25T06:27:17.836Z,44.13
2023-05-25T06:29:44.591Z,44.49
2023-05-25T06:32:11.730Z,44.32
2023-05-25T06:34:38.889Z,44.63
2023-05-25T06:37:07.082Z,44.71
2023-05-25T06:39:33.941Z,44.15
2023-05-25T06:42:01.700Z,44.35
2023-05-25T06:44:28.482Z,43.89
2023-05-25T06:46:55.531Z,44.07
2023-05-25T06:49:22.304Z,44.14
2023-05-25T06:51:51.230Z,43.88
2023-05-25T06:54:19.600Z,44.17
2023-05-25T06:56:46.827Z,44.17
2023-05-25T06:59:13.630Z,43.70
2023-05-25T07:01:41.189Z,43.52
2023-05-25T07:04:08.007Z,43.76
2023-05-25T07:06:35.073Z,43.86
2023-05-25T07:09:01.888Z,43.75
2023-05-25T07:11:28.936Z,43.68
2023-05-25T07:13:55.686Z,43.79
2023-05-25T07:16:22.796Z,43.45
2023-05-25T07:18:49.628Z,43.55
2023-05-25T07:21:17.375Z,43.73
2023-05-25T07:23:44.148Z,43.59
2023-05-25T07:26:11.322Z,43.74
2023-05-25T07:28:38.123Z,43.80
2023-05-25T07:31:05.260Z,43.68
2023-05-25T07:33:32.088Z,44.02
2023-05-25T07:35:59.164Z,43.77
2023-05-25T07:38:25.990Z,43.68
2023-05-25T07:40:53.150Z,43.69
2023-05-25T07:43:20.052Z,43.59
2023-05-25T07:45:47.265Z,43.33
2023-05-25T07:48:14.263Z,43.51
2023-05-25T07:50:41.464Z,43.24
2023-05-25T07:53:08.331Z,43.37
2023-05-25T07:55:35.465Z,43.44
2023-05-25T07:58:02.263Z,43.46
2023-05-25T08:00:29.689Z,43.42
2023-05-25T08:02:56.882Z,43.76
2023-05-25T08:05:24.130Z,43.34
2023-05-25T08:07:50.877Z,43.56
2023-05-25T08:10:17.988Z,43.31
2023-05-25T08:12:49.736Z,43.22
2023-05-25T08:15:17.906Z,43.23
2023-05-25T08:17:45.073Z,43.44
2023-05-25T08:20:12.599Z,43.27
2023-05-25T08:22:39.444Z,43.44
2023-05-25T08:25:06.976Z,43.48
2023-05-25T08:27:35.672Z,43.56
2023-05-25T08:30:05.852Z,43.68
2023-05-25T08:32:32.672Z,43.06
2023-05-25T08:34:59.761Z,43.12
2023-05-25T08:37:26.536Z,43.29
2023-05-25T08:39:53.561Z,43.19
2023-05-25T08:42:21.004Z,43.58
2023-05-25T08:44:48.153Z,43.26
2023-05-25T08:47:15.424Z,43.45
2023-05-25T08:49:42.589Z,43.53
2023-05-25T08:52:11.386Z,43.48
2023-05-25T08:54:38.542Z,43.48
2023-05-25T08:57:16.209Z,43.08
2023-05-25T08:59:58.473Z,43.57
2023-05-25T09:02:43.613Z,43.48
2023-05-25T09:05:10.769Z,43.13
2023-05-25T09:07:37.577Z,43.34
2023-05-25T09:10:05.183Z,42.84
2023-05-25T09:12:32.054Z,43.18
2023-05-25T09:14:59.318Z,42.98
2023-05-25T09:17:26.843Z,43.31
2023-05-25T09:19:54.351Z,43.14
2023-05-25T09:22:21.188Z,43.10
2023-05-25T09:24:48.282Z,43.17
2023-05-25T09:27:19.301Z,43.09
2023-05-25T09:29:49.963Z,42.94
2023-05-25T09:32:17.570Z,42.88
2023-05-25T09:34:48.014Z,43.34
2023-05-25T09:37:16.479Z,43.18
2023-05-25T09:39:44.129Z,42.90
2023-05-25T09:42:11.610Z,42.84
2023-05-25T09:44:39.512Z,43.24
2023-05-25T09:47:06.509Z,43.27
2023-05-25T09:49:33.632Z,43.89
2023-05-25T09:52:00.723Z,43.79
2023-05-25T09:54:27.800Z,43.58
2023-05-25T09:56:54.646Z,44.05
2023-05-25T09:59:24.698Z,43.73
2023-05-25T10:01:52.258Z,43.75
2023-05-25T10:04:19.422Z,43.53
2023-05-25T10:06:46.988Z,43.35
2023-05-25T10:09:14.652Z,42.91
2023-05-25T10:11:41.438Z,43.26
2023-05-25T10:14:08.869Z,43.62
2023-05-25T10:16:36.419Z,43.62
2023-05-25T10:19:06.987Z,43.82
2023-05-25T10:21:33.797Z,43.46
2023-05-25T10:24:05.016Z,43.80
2023-05-25T10:26:33.967Z,43.73
2023-05-25T10:29:04.685Z,43.73
2023-05-25T10:31:34.060Z,43.32
2023-05-25T10:34:01.303Z,43.67
2023-05-25T10:36:28.145Z,43.48
2023-05-25T10:38:55.182Z,43.63
2023-05-25T10:41:22.052Z,43.45
2023-05-25T10:43:49.128Z,43.79
2023-05-25T10:46:16.476Z,43.75
2023-05-25T10:48:51.780Z,43.82
2023-05-25T10:51:21.979Z,44.03
2023-05-25T10:53:59.116Z,44.02
2023-05-25T10:56:26.405Z,43.98
2023-05-25T10:58:53.729Z,43.67
2023-05-25T11:01:20.848Z,43.72
2023-05-25T11:03:48.689Z,43.91
2023-05-25T11:06:16.501Z,44.20
2023-05-25T11:08:59.886Z,43.84
2023-05-25T11:11:45.522Z,43.80
2023-05-25T11:14:21.981Z,44.21
2023-05-25T11:17:11.653Z,43.95
2023-05-25T11:19:41.510Z,44.20
2023-05-25T11:22:21.298Z,43.91
2023-05-25T11:24:49.222Z,44.27
2023-05-25T11:27:16.054Z,44.02
2023-05-25T11:29:43.670Z,43.70
2023-05-25T11:32:14.469Z,43.96
2023-05-25T11:34:42.084Z,44.29
2023-05-25T11:37:11.077Z,44.33
2023-05-25T11:39:39.629Z,44.01
2023-05-25T11:42:11.185Z,44.22
2023-05-25T11:44:39.165Z,44.11
2023-05-25T11:47:13.404Z,43.99
2023-05-25T11:49:42.061Z,43.93
2023-05-25T11:52:09.087Z,44.18
2023-05-25T11:54:36.463Z,43.97
2023-05-25T11:57:03.774Z,44.12
2023-05-25T11:59:32.658Z,44.06
2023-05-25T12:02:00.759Z,44.27
2023-05-25T12:04:28.788Z,43.74
2023-05-25T12:07:06.799Z,43.91
2023-05-25T12:09:34.424Z,44.06
2023-05-25T12:12:01.518Z,44.11
2023-05-25T12:14:28.625Z,44.39
2023-05-25T12:16:55.957Z,44.00
2023-05-25T12:19:23.128Z,44.57
2023-05-25T12:21:51.588Z,44.02
2023-05-25T12:24:18.865Z,44.03
2023-05-25T12:26:49.751Z,44.27
2023-05-25T12:29:16.929Z,43.93
2023-05-25T12:31:43.848Z,44.22
2023-05-25T12:34:14.026Z,44.06
2023-05-25T12:36:53.349Z,43.91
2023-05-25T12:39:29.650Z,44.14
2023-05-25T12:42:00.234Z,44.42
2023-05-25T12:44:31.480Z,44.24
2023-05-25T12:47:23.476Z,44.14
2023-05-25T12:49:52.216Z,44.20
2023-05-25T12:52:38.311Z,44.73
2023-05-25T12:55:28.094Z,44.54
2023-05-25T12:57:55.793Z,44.79
2023-05-25T13:00:24.087Z,44.18
2023-05-25T13:02:53.639Z,44.52
2023-05-25T13:05:25.168Z,44.31
2023-05-25T13:07:53.719Z,44.13
2023-05-25T13:10:21.203Z,44.08
2023-05-25T13:12:48.825Z,44.36
2023-05-25T13:15:18.733Z,44.30
2023-05-25T13:17:45.552Z,44.47
2023-05-25T13:20:16.239Z,44.57
2023-05-25T13:22:43.647Z,43.83
2023-05-25T13:25:11.564Z,44.12
2023-05-25T13:27:38.371Z,44.67
2023-05-25T13:30:08.700Z,44.58
2023-05-25T13:32:35.758Z,44.10
2023-05-25T13:35:04.619Z,44.20
2023-05-25T13:37:33.358Z,44.05
2023-05-25T13:40:00.714Z,44.03
2023-05-25T13:42:27.888Z,44.14
2023-05-25T13:44:54.904Z,43.81
2023-05-25T13:47:22.111Z,43.92
2023-05-25T13:49:49.035Z,44.32
2023-05-25T13:52:16.222Z,44.34
2023-05-25T13:54:42.982Z,44.38
2023-05-25T13:57:10.053Z,43.98
2023-05-25T13:59:37.633Z,44.25
2023-05-25T14:02:04.879Z,44.18
2023-05-25T14:04:31.740Z,44.13
2023-05-25T14:06:59.440Z,44.18
2023-05-25T14:09:26.279Z,43.95
2023-05-25T14:11:53.774Z,44.17
2023-05-25T14:14:31.314Z,44.24
2023-05-25T14:17:01.171Z,43.86
2023-05-25T14:19:28.559Z,44.31
2023-05-25T14:22:11.965Z,43.78
2023-05-25T14:24:40.593Z,44.07
2023-05-25T14:27:07.693Z,44.08
2023-05-25T14:29:34.782Z,44.06
2023-05-25T14:32:02.029Z,44.32
2023-05-25T14:34:29.482Z,43.62
2023-05-25T14:36:56.787Z,43.89
2023-05-25T14:39:23.658Z,44.32
2023-05-25T14:41:50.878Z,44.04
2023-05-25T14:44:17.787Z,43.99
2023-05-25T14:46:45.116Z,43.65
2023-05-25T14:49:13.690Z,43.98
2023-05-25T14:51:41.461Z,44.09
2023-05-25T14:54:08.854Z,43.64
2023-05-25T14:56:36.559Z,43.98
2023-05-25T14:59:03.283Z,44.16
2023-05-25T15:01:30.364Z,44.14
2023-05-25T15:03:57.292Z,44.22
2023-05-25T15:06:24.477Z,44.10
2023-05-25T15:08:51.261Z,44.26
2023-05-25T15:11:18.503Z,43.86
2023-05-25T15:13:45.385Z,44.47
2023-05-25T15:16:13.256Z,44.43
2023-05-25T15:18:40.100Z,44.31
2023-05-25T15:21:07.281Z,44.00
2023-05-25T15:23:34.109Z,44.41
2023-05-25T15:26:04.253Z,44.11
2023-05-25T15:28:31.549Z,44.10
2023-05-25T15:31:01.610Z,44.21
2023-05-25T15:33:43.621Z,44.34
2023-05-25T15:36:17.097Z,43.99
2023-05-25T15:38:44.559Z,44.13
2023-05-25T15:41:12.771Z,44.32
2023-05-25T15:43:39.670Z,44.06
2023-05-25T15:46:06.808Z,44.02
2023-05-25T15:48:33.666Z,43.98
2023-05-25T15:51:00.998Z,44.31
2023-05-25T15:53:27.760Z,43.96
2023-05-25T15:55:54.850Z,43.98
2023-05-25T15:58:21.596Z,44.05
2023-05-25T16:00:48.667Z,44.11
2023-05-25T16:03:15.536Z,44.40
2023-05-25T16:05:42.806Z,43.97
2023-05-25T16:08:11.705Z,43.81
2023-05-25T16:10:38.768Z,43.82
2023-05-25T16:13:05.516Z,43.82
2023-05-25T16:15:33.078Z,43.84
2023-05-25T16:18:01.303Z,44.14
2023-05-25T16:20:28.635Z,43.83
2023-05-25T16:22:55.459Z,43.87
2023-05-25T16:25:22.642Z,43.79
2023-05-25T16:27:49.460Z,43.90
2023-05-25T16:30:16.563Z,43.83
2023-05-25T16:32:43.435Z,43.73
2023-05-25T16:35:10.508Z,44.04
2023-05-25T16:37:37.273Z,44.16
2023-05-25T16:40:04.606Z,43.62
2023-05-25T16:42:31.370Z,43.62
2023-05-25T16:44:58.545Z,43.99
2023-05-25T16:47:25.508Z,43.80
2023-05-25T16:49:52.579Z,44.20
2023-05-25T16:52:19.424Z,43.71
2023-05-25T16:54:46.536Z,44.18
2023-05-25T16:57:13.340Z,43.83
2023-05-25T16:59:40.986Z,43.83
2023-05-25T17:02:07.807Z,43.71
2023-05-25T17:04:34.864Z,44.09
2023-05-25T17:07:01.579Z,43.84
2023-05-25T17:09:28.690Z,43.94
2023-05-25T17:11:59.467Z,44.25
2023-05-25T17:14:26.882Z,44.36
2023-05-25T17:16:53.691Z,43.92
2023-05-25T17:19:20.799Z,44.23
2023-05-25T17:21:48.165Z,43.98
2023-05-25T17:24:15.414Z,43.82
2023-05-25T17:26:42.260Z,44.00
2023-05-25T17:29:09.334Z,43.68
2023-05-25T17:31:36.249Z,43.74
2023-05-25T17:34:03.412Z,43.73
2023-05-25T17:36:30.196Z,44.09
2023-05-25T17:38:57.374Z,44.00
2023-05-25T17:41:24.150Z,43.70
2023-05-25T17:43:51.232Z,43.69
2023-05-25T17:46:18.065Z,44.01
2023-05-25T17:48:45.763Z,43.61
2023-05-25T17:51:12.559Z,43.70
2023-05-25T17:53:39.634Z,43.53
2023-05-25T17:56:06.650Z,44.00
2023-05-25T17:58:33.697Z,43.76
2023-05-25T18:01:01.222Z,43.87
2023-05-25T18:03:28.631Z,43.69
2023-05-25T18:05:55.695Z,43.90
2023-05-25T18:08:22.882Z,43.95
2023-05-25T18:10:50.640Z,43.92
2023-05-25T18:13:17.834Z,43.72
2023-05-25T18:15:44.839Z,43.93
2023-05-25T18:18:14.685Z,43.36
2023-05-25T18:20:41.459Z,44.01
2023-05-25T18:23:08.734Z,43.85
2023-05-25T18:25:35.534Z,43.96
2023-05-25T18:28:02.664Z,43.93
2023-05-25T18:30:29.443Z,43.94
2023-05-25T18:32:56.487Z,43.64
2023-05-25T18:35:23.260Z,43.82
2023-05-25T18:37:50.305Z,44.21
2023-05-25T18:40:17.164Z,44.18
2023-05-25T18:42:44.230Z,43.94
2023-05-25T18:45:11.085Z,44.31
2023-05-25T18:47:38.463Z,44.20
2023-05-25T18:50:05.902Z,44.05
2023-05-25T18:52:32.993Z,43.80
2023-05-25T18:54:59.780Z,44.24
2023-05-25T18:57:27.048Z,43.79
2023-05-25T18:59:53.914Z,44.24
2023-05-25T19:02:21.396Z,43.91
2023-05-25T19:04:49.605Z,43.95
2023-05-25T19:07:16.725Z,43.78
2023-05-25T19:09:43.613Z,43.67
2023-05-25T19:12:10.776Z,43.99
2023-05-25T19:14:37.731Z,43.49
2023-05-25T19:17:04.970Z,43.24
2023-05-25T19:19:31.782Z,43.81
2023-05-25T19:21:58.884Z,43.55
2023-05-25T19:24:25.770Z,43.30
2023-05-25T19:26:52.852Z,43.18
2023-05-25T19:29:19.645Z,43.51
2023-05-25T19:31:46.692Z,43.20
2023-05-25T19:34:13.533Z,43.05
2023-05-25T19:36:40.778Z,43.46
2023-05-25T19:39:07.552Z,43.34
2023-05-25T19:41:36.450Z,43.41
2023-05-25T19:44:03.226Z,43.50
2023-05-25T19:46:30.718Z,43.04
2023-05-25T19:48:57.865Z,43.32
2023-05-25T19:51:24.941Z,43.59
2023-05-25T19:53:52.196Z,43.47
2023-05-25T19:56:19.255Z,43.11
2023-05-25T19:58:46.161Z,43.49
2023-05-25T20:01:13.358Z,43.27
2023-05-25T20:03:40.228Z,43.25
2023-05-25T20:06:07.369Z,43.74
2023-05-25T20:08:34.105Z,43.46
2023-05-25T20:11:02.691Z,43.73
2023-05-25T20:13:29.627Z,43.45
2023-05-25T20:15:56.794Z,43.49
2023-05-25T20:18:26.583Z,43.38
2023-05-25T20:20:53.669Z,43.87
2023-05-25T20:23:20.915Z,43.50
2023-05-25T20:25:48.043Z,43.84
2023-05-25T20:28:14.874Z,43.92
2023-05-25T20:30:42.094Z,43.54
2023-05-25T20:33:08.891Z,43.34
2023-05-25T20:35:36.615Z,43.60
2023-05-25T20:38:03.422Z,43.45
2023-05-25T20:40:30.680Z,43.67
2023-05-25T20:42:57.580Z,43.63
2023-05-25T20:45:24.789Z,43.81
2023-05-25T20:48:01.653Z,43.48
2023-05-25T20:50:28.962Z,43.71
2023-05-25T20:52:55.946Z,43.52
2023-05-25T20:55:23.179Z,43.35
2023-05-25T20:57:49.909Z,43.71
2023-05-25T21:00:17.136Z,43.54
2023-05-25T21:02:43.940Z,43.41
2023-05-25T21:05:11.116Z,43.20
2023-05-25T21:07:37.845Z,43.40
2023-05-25T21:10:05.686Z,43.51
2023-05-25T21:12:32.438Z,43.75
2023-05-25T21:14:59.472Z,43.54
2023-05-25T21:17:26.510Z,43.52
2023-05-25T21:19:53.717Z,43.54
2023-05-25T21:22:20.672Z,43.35
2023-05-25T21:24:48.000Z,43.51
2023-05-25T21:27:14.858Z,43.41
2023-05-25T21:29:42.167Z,43.40
2023-05-25T21:32:09.223Z,43.48
2023-05-25T21:34:36.334Z,43.23
2023-05-25T21:37:03.410Z,43.49
2023-05-25T21:39:30.593Z,43.48
2023-05-25T21:41:57.326Z,43.60
2023-05-25T21:44:24.422Z,43.24
2023-05-25T21:46:51.242Z,43.20
2023-05-25T21:49:18.510Z,43.38
2023-05-25T21:51:45.324Z,43.31
2023-05-25T21:54:12.400Z,43.46
2023-05-25T21:56:39.244Z,43.66
2023-05-25T21:59:06.331Z,43.57
2023-05-25T22:01:33.283Z,43.50
2023-05-25T22:04:00.455Z,43.40
2023-05-25T22:06:27.223Z,43.68
2023-05-25T22:08:54.345Z,43.28
2023-05-25T22:11:22.287Z,43.29
2023-05-25T22:13:49.365Z,43.60
2023-05-25T22:16:16.168Z,43.21
2023-05-25T22:18:43.296Z,43.54
2023-05-25T22:21:10.078Z,43.37
2023-05-25T22:23:37.309Z,43.64
2023-05-25T22:26:05.147Z,43.21
2023-05-25T22:28:32.307Z,43.44
2023-05-25T22:30:59.265Z,43.43
2023-05-25T22:33:26.430Z,43.18
2023-05-25T22:35:53.207Z,43.45
2023-05-25T22:38:20.515Z,43.53
2023-05-25T22:40:47.789Z,43.34
2023-05-25T22:43:15.021Z,43.75
2023-05-25T22:45:41.819Z,43.36
2023-05-25T22:48:09.003Z,43.61
2023-05-25T22:50:37.005Z,43.53
2023-05-25T22:53:04.582Z,43.95
2023-05-25T22:55:31.776Z,43.56
2023-05-25T22:57:58.851Z,43.42
2023-05-25T23:00:25.790Z,43.28
2023-05-25T23:02:52.930Z,43.22
2023-05-25T23:05:19.804Z,43.38
2023-05-25T23:07:46.987Z,42.91
2023-05-25T23:10:13.905Z,43.56
2023-05-25T23:12:41.051Z,43.35
2023-05-25T23:15:09.394Z,43.57
2023-05-25T23:17:36.498Z,43.34
2023-05-25T23:20:07.671Z,43.26
2023-05-25T23:22:34.824Z,43.39
2023-05-25T23:25:01.688Z,43.29
2023-05-25T23:27:28.748Z,43.35
2023-05-25T23:29:55.465Z,43.64
2023-05-25T23:32:22.565Z,43.17
2023-05-25T23:34:49.344Z,43.33
2023-05-25T23:37:16.553Z,43.15
2023-05-25T23:39:43.296Z,43.56
2023-05-25T23:42:12.156Z,43.51
2023-05-25T23:44:38.894Z,43.34
2023-05-25T23:47:06.265Z,43.65
2023-05-25T23:49:33.046Z,43.26
2023-05-25T23:52:00.034Z,43.63
2023-05-25T23:54:26.817Z,43.27
2023-05-25T23:56:53.849Z,43.40
2023-05-25T23:59:20.709Z,43.41
